sensor_id;sensor_type;location;lat;lon;timestamp;temperature;humidity
36498;DHT22;22513;51.222;6.480;2022-08-16T00:00:39;19.40;99.90
36498;DHT22;22513;51.222;6.480;2022-08-16T00:03:05;19.40;99.90
36498;DHT22;22513;51.222;6.480;2022-08-16T00:05:31;19.50;99.90
36498;DHT22;22513;51.222;6.480;2022-08-16T00:07:57;19.50;99.90
36498;DHT22;22513;51.222;6.480;2022-08-16T00:10:25;19.60;99.90
36498;DHT22;22513;51.222;6.480;2022-08-16T00:12:51;19.60;99.90
36498;DHT22;22513;51.222;6.480;2022-08-16T00:15:24;19.60;99.90
36498;DHT22;22513;51.222;6.480;2022-08-16T00:17:50;19.70;99.90
36498;DHT22;22513;51.222;6.480;2022-08-16T00:20:17;19.70;99.90
36498;DHT22;22513;51.222;6.480;2022-08-16T00:22:43;19.70;99.90
36498;DHT22;22513;51.222;6.480;2022-08-16T00:25:12;19.70;99.90
36498;DHT22;22513;51.222;6.480;2022-08-16T00:27:38;19.80;99.90
36498;DHT22;22513;51.222;6.480;2022-08-16T00:30:06;19.80;99.90
36498;DHT22;22513;51.222;6.480;2022-08-16T00:32:33;19.80;99.90
36498;DHT22;22513;51.222;6.480;2022-08-16T00:34:58;19.80;99.90
36498;DHT22;22513;51.222;6.480;2022-08-16T00:37:25;19.90;99.90
36498;DHT22;22513;51.222;6.480;2022-08-16T00:39:52;19.90;99.90
36498;DHT22;22513;51.222;6.480;2022-08-16T00:42:19;19.90;99.90
36498;DHT22;22513;51.222;6.480;2022-08-16T00:44:56;19.90;99.90
36498;DHT22;22513;51.222;6.480;2022-08-16T00:47:25;20.00;99.90
36498;DHT22;22513;51.222;6.480;2022-08-16T00:49:51;20.00;99.90
36498;DHT22;22513;51.222;6.480;2022-08-16T00:52:17;20.00;99.90
36498;DHT22;22513;51.222;6.480;2022-08-16T00:54:42;20.10;99.90
36498;DHT22;22513;51.222;6.480;2022-08-16T00:57:08;20.10;99.90
36498;DHT22;22513;51.222;6.480;2022-08-16T00:59:37;20.10;99.90
36498;DHT22;22513;51.222;6.480;2022-08-16T01:02:06;20.20;99.90
36498;DHT22;22513;51.222;6.480;2022-08-16T01:04:32;20.20;99.90
36498;DHT22;22513;51.222;6.480;2022-08-16T01:06:59;20.30;99.90
36498;DHT22;22513;51.222;6.480;2022-08-16T01:09:25;20.30;99.90
36498;DHT22;22513;51.222;6.480;2022-08-16T01:11:51;20.30;99.90
36498;DHT22;22513;51.222;6.480;2022-08-16T01:14:27;20.30;99.90
36498;DHT22;22513;51.222;6.480;2022-08-16T01:16:56;20.30;99.90
36498;DHT22;22513;51.222;6.480;2022-08-16T01:19:29;20.30;99.90
36498;DHT22;22513;51.222;6.480;2022-08-16T01:21:59;20.30;99.90
36498;DHT22;22513;51.222;6.480;2022-08-16T01:27:06;20.20;99.90
36498;DHT22;22513;51.222;6.480;2022-08-16T01:29:42;20.10;99.90
36498;DHT22;22513;51.222;6.480;2022-08-16T01:32:09;20.00;99.90
36498;DHT22;22513;51.222;6.480;2022-08-16T01:34:34;20.00;99.90
36498;DHT22;22513;51.222;6.480;2022-08-16T01:37:04;20.00;99.90
36498;DHT22;22513;51.222;6.480;2022-08-16T01:39:32;19.90;99.90
36498;DHT22;22513;51.222;6.480;2022-08-16T01:41:58;19.80;99.90
36498;DHT22;22513;51.222;6.480;2022-08-16T01:44:23;19.70;99.90
36498;DHT22;22513;51.222;6.480;2022-08-16T01:46:49;19.50;99.90
36498;DHT22;22513;51.222;6.480;2022-08-16T01:49:17;19.40;99.90
36498;DHT22;22513;51.222;6.480;2022-08-16T01:51:45;19.40;99.90
36498;DHT22;22513;51.222;6.480;2022-08-16T01:54:11;19.30;99.90
36498;DHT22;22513;51.222;6.480;2022-08-16T01:56:38;19.20;99.90
36498;DHT22;22513;51.222;6.480;2022-08-16T01:59:06;19.10;99.90
36498;DHT22;22513;51.222;6.480;2022-08-16T02:01:33;19.00;99.90
36498;DHT22;22513;51.222;6.480;2022-08-16T02:04:00;19.00;99.90
36498;DHT22;22513;51.222;6.480;2022-08-16T02:06:26;18.90;99.90
36498;DHT22;22513;51.222;6.480;2022-08-16T02:08:52;18.90;99.90
36498;DHT22;22513;51.222;6.480;2022-08-16T02:11:21;18.80;99.90
36498;DHT22;22513;51.222;6.480;2022-08-16T02:13:47;18.70;99.90
36498;DHT22;22513;51.222;6.480;2022-08-16T02:16:12;18.70;99.90
36498;DHT22;22513;51.222;6.480;2022-08-16T02:18:38;18.60;99.90
36498;DHT22;22513;51.222;6.480;2022-08-16T02:21:05;18.60;99.90
36498;DHT22;22513;51.222;6.480;2022-08-16T02:23:33;18.50;99.90
36498;DHT22;22513;51.222;6.480;2022-08-16T02:26:01;18.40;99.90
36498;DHT22;22513;51.222;6.480;2022-08-16T02:28:27;18.40;99.90
36498;DHT22;22513;51.222;6.480;2022-08-16T02:30:54;18.30;99.90
36498;DHT22;22513;51.222;6.480;2022-08-16T02:33:21;18.20;99.90
36498;DHT22;22513;51.222;6.480;2022-08-16T02:35:47;18.20;99.90
36498;DHT22;22513;51.222;6.480;2022-08-16T02:38:13;18.10;99.90
36498;DHT22;22513;51.222;6.480;2022-08-16T02:40:38;18.00;99.90
36498;DHT22;22513;51.222;6.480;2022-08-16T02:43:05;17.90;99.90
36498;DHT22;22513;51.222;6.480;2022-08-16T02:45:31;17.90;99.90
36498;DHT22;22513;51.222;6.480;2022-08-16T02:47:57;17.80;99.90
36498;DHT22;22513;51.222;6.480;2022-08-16T02:50:24;17.70;99.90
36498;DHT22;22513;51.222;6.480;2022-08-16T02:52:50;17.70;99.90
36498;DHT22;22513;51.222;6.480;2022-08-16T02:55:17;17.60;99.90
36498;DHT22;22513;51.222;6.480;2022-08-16T02:57:43;17.50;99.90
36498;DHT22;22513;51.222;6.480;2022-08-16T03:00:10;17.40;99.90
36498;DHT22;22513;51.222;6.480;2022-08-16T03:02:39;17.40;99.90
36498;DHT22;22513;51.222;6.480;2022-08-16T03:05:06;17.30;99.90
36498;DHT22;22513;51.222;6.480;2022-08-16T03:07:33;17.30;99.90
36498;DHT22;22513;51.222;6.480;2022-08-16T03:09:59;17.20;99.90
36498;DHT22;22513;51.222;6.480;2022-08-16T03:12:24;17.20;99.90
36498;DHT22;22513;51.222;6.480;2022-08-16T03:14:50;17.10;99.90
36498;DHT22;22513;51.222;6.480;2022-08-16T03:17:16;17.10;99.90
36498;DHT22;22513;51.222;6.480;2022-08-16T03:19:42;17.10;99.90
36498;DHT22;22513;51.222;6.480;2022-08-16T03:22:08;17.10;99.90
36498;DHT22;22513;51.222;6.480;2022-08-16T03:24:33;17.10;99.90
36498;DHT22;22513;51.222;6.480;2022-08-16T03:27:01;17.10;99.90
36498;DHT22;22513;51.222;6.480;2022-08-16T03:29:29;17.10;99.90
36498;DHT22;22513;51.222;6.480;2022-08-16T03:31:59;17.10;99.90
36498;DHT22;22513;51.222;6.480;2022-08-16T03:34:25;17.00;99.90
36498;DHT22;22513;51.222;6.480;2022-08-16T03:36:50;17.00;99.90
36498;DHT22;22513;51.222;6.480;2022-08-16T03:39:16;17.00;99.90
36498;DHT22;22513;51.222;6.480;2022-08-16T03:41:41;17.00;99.90
36498;DHT22;22513;51.222;6.480;2022-08-16T03:44:08;16.90;99.90
36498;DHT22;22513;51.222;6.480;2022-08-16T03:46:34;16.90;99.90
36498;DHT22;22513;51.222;6.480;2022-08-16T03:49:00;16.80;99.90
36498;DHT22;22513;51.222;6.480;2022-08-16T03:51:27;16.80;99.90
36498;DHT22;22513;51.222;6.480;2022-08-16T03:53:52;16.80;99.90
36498;DHT22;22513;51.222;6.480;2022-08-16T03:56:18;16.70;99.90
36498;DHT22;22513;51.222;6.480;2022-08-16T03:58:44;16.70;99.90
36498;DHT22;22513;51.222;6.480;2022-08-16T04:01:10;16.60;99.90
36498;DHT22;22513;51.222;6.480;2022-08-16T04:03:36;16.60;99.90
36498;DHT22;22513;51.222;6.480;2022-08-16T04:06:02;16.60;99.90
36498;DHT22;22513;51.222;6.480;2022-08-16T04:08:28;16.60;99.90
36498;DHT22;22513;51.222;6.480;2022-08-16T04:10:55;16.50;99.90
36498;DHT22;22513;51.222;6.480;2022-08-16T04:13:22;16.50;99.90
36498;DHT22;22513;51.222;6.480;2022-08-16T04:15:48;16.40;99.90
36498;DHT22;22513;51.222;6.480;2022-08-16T04:18:14;16.40;99.90
36498;DHT22;22513;51.222;6.480;2022-08-16T04:20:41;16.40;99.90
36498;DHT22;22513;51.222;6.480;2022-08-16T04:23:06;16.30;99.90
36498;DHT22;22513;51.222;6.480;2022-08-16T04:25:34;16.30;99.90
36498;DHT22;22513;51.222;6.480;2022-08-16T04:28:01;16.30;99.90
36498;DHT22;22513;51.222;6.480;2022-08-16T04:30:27;16.30;99.90
36498;DHT22;22513;51.222;6.480;2022-08-16T04:32:53;16.30;99.90
36498;DHT22;22513;51.222;6.480;2022-08-16T04:35:20;16.40;99.90
36498;DHT22;22513;51.222;6.480;2022-08-16T04:37:47;16.40;99.90
36498;DHT22;22513;51.222;6.480;2022-08-16T04:40:14;16.50;99.90
36498;DHT22;22513;51.222;6.480;2022-08-16T04:42:40;16.50;99.90
36498;DHT22;22513;51.222;6.480;2022-08-16T04:45:11;16.50;99.90
36498;DHT22;22513;51.222;6.480;2022-08-16T04:47:38;16.60;99.90
36498;DHT22;22513;51.222;6.480;2022-08-16T04:50:12;16.70;99.90
36498;DHT22;22513;51.222;6.480;2022-08-16T04:52:38;16.90;99.90
36498;DHT22;22513;51.222;6.480;2022-08-16T04:55:10;17.00;99.90
36498;DHT22;22513;51.222;6.480;2022-08-16T04:57:36;17.20;99.90
36498;DHT22;22513;51.222;6.480;2022-08-16T05:00:05;17.40;99.90
36498;DHT22;22513;51.222;6.480;2022-08-16T05:02:31;17.70;99.90
36498;DHT22;22513;51.222;6.480;2022-08-16T05:04:57;18.00;99.90
36498;DHT22;22513;51.222;6.480;2022-08-16T05:07:22;18.30;99.90
36498;DHT22;22513;51.222;6.480;2022-08-16T05:09:48;18.60;99.90
36498;DHT22;22513;51.222;6.480;2022-08-16T05:12:13;18.80;99.90
36498;DHT22;22513;51.222;6.480;2022-08-16T05:14:39;19.10;99.90
36498;DHT22;22513;51.222;6.480;2022-08-16T05:17:05;19.50;99.90
36498;DHT22;22513;51.222;6.480;2022-08-16T05:19:30;19.80;99.90
36498;DHT22;22513;51.222;6.480;2022-08-16T05:21:56;20.10;99.90
36498;DHT22;22513;51.222;6.480;2022-08-16T05:24:21;20.40;99.90
36498;DHT22;22513;51.222;6.480;2022-08-16T05:26:47;20.70;99.90
36498;DHT22;22513;51.222;6.480;2022-08-16T05:29:13;21.00;99.90
36498;DHT22;22513;51.222;6.480;2022-08-16T05:31:39;21.40;99.90
36498;DHT22;22513;51.222;6.480;2022-08-16T05:34:04;21.90;99.90
36498;DHT22;22513;51.222;6.480;2022-08-16T05:36:31;22.40;99.90
36498;DHT22;22513;51.222;6.480;2022-08-16T05:38:57;22.80;99.90
36498;DHT22;22513;51.222;6.480;2022-08-16T05:41:22;23.30;99.90
36498;DHT22;22513;51.222;6.480;2022-08-16T05:43:48;23.80;99.90
36498;DHT22;22513;51.222;6.480;2022-08-16T05:46:15;24.40;99.90
36498;DHT22;22513;51.222;6.480;2022-08-16T05:48:44;25.10;99.90
36498;DHT22;22513;51.222;6.480;2022-08-16T05:51:10;25.70;99.20
36498;DHT22;22513;51.222;6.480;2022-08-16T05:53:35;26.40;98.00
36498;DHT22;22513;51.222;6.480;2022-08-16T05:56:02;27.00;96.40
36498;DHT22;22513;51.222;6.480;2022-08-16T05:58:28;27.40;95.30
36498;DHT22;22513;51.222;6.480;2022-08-16T06:00:55;27.80;93.80
36498;DHT22;22513;51.222;6.480;2022-08-16T06:03:20;28.10;92.30
36498;DHT22;22513;51.222;6.480;2022-08-16T06:05:46;28.40;91.40
36498;DHT22;22513;51.222;6.480;2022-08-16T06:08:13;28.70;90.40
36498;DHT22;22513;51.222;6.480;2022-08-16T06:10:38;28.80;90.10
36498;DHT22;22513;51.222;6.480;2022-08-16T06:13:04;29.00;89.60
36498;DHT22;22513;51.222;6.480;2022-08-16T06:15:30;29.20;87.50
36498;DHT22;22513;51.222;6.480;2022-08-16T06:18:02;29.50;86.20
36498;DHT22;22513;51.222;6.480;2022-08-16T06:20:28;29.80;83.80
36498;DHT22;22513;51.222;6.480;2022-08-16T06:22:55;30.20;82.70
36498;DHT22;22513;51.222;6.480;2022-08-16T06:25:22;30.50;80.50
36498;DHT22;22513;51.222;6.480;2022-08-16T06:27:48;30.70;79.30
36498;DHT22;22513;51.222;6.480;2022-08-16T06:30:14;31.00;77.60
36498;DHT22;22513;51.222;6.480;2022-08-16T06:32:40;31.20;78.20
36498;DHT22;22513;51.222;6.480;2022-08-16T06:35:06;31.70;74.90
36498;DHT22;22513;51.222;6.480;2022-08-16T06:37:32;32.20;74.90
36498;DHT22;22513;51.222;6.480;2022-08-16T06:39:57;32.60;71.40
36498;DHT22;22513;51.222;6.480;2022-08-16T06:42:23;33.00;70.30
36498;DHT22;22513;51.222;6.480;2022-08-16T06:44:49;33.30;69.20
36498;DHT22;22513;51.222;6.480;2022-08-16T06:47:15;33.50;67.80
36498;DHT22;22513;51.222;6.480;2022-08-16T06:49:41;33.80;66.90
36498;DHT22;22513;51.222;6.480;2022-08-16T06:52:06;34.10;63.80
36498;DHT22;22513;51.222;6.480;2022-08-16T06:54:34;34.00;63.60
36498;DHT22;22513;51.222;6.480;2022-08-16T06:57:00;33.80;63.20
36498;DHT22;22513;51.222;6.480;2022-08-16T06:59:26;33.90;63.60
36498;DHT22;22513;51.222;6.480;2022-08-16T07:01:51;34.20;63.00
36498;DHT22;22513;51.222;6.480;2022-08-16T07:04:18;34.80;61.40
36498;DHT22;22513;51.222;6.480;2022-08-16T07:06:44;35.10;59.60
36498;DHT22;22513;51.222;6.480;2022-08-16T07:09:12;35.50;58.80
36498;DHT22;22513;51.222;6.480;2022-08-16T07:11:37;35.70;58.20
36498;DHT22;22513;51.222;6.480;2022-08-16T07:14:03;36.10;56.60
36498;DHT22;22513;51.222;6.480;2022-08-16T07:16:29;36.30;56.00
36498;DHT22;22513;51.222;6.480;2022-08-16T07:18:54;36.70;54.50
36498;DHT22;22513;51.222;6.480;2022-08-16T07:21:21;37.00;53.50
36498;DHT22;22513;51.222;6.480;2022-08-16T07:23:47;37.20;53.60
36498;DHT22;22513;51.222;6.480;2022-08-16T07:26:18;37.60;52.10
36498;DHT22;22513;51.222;6.480;2022-08-16T07:28:44;38.00;51.30
36498;DHT22;22513;51.222;6.480;2022-08-16T07:31:10;38.60;50.00
36498;DHT22;22513;51.222;6.480;2022-08-16T07:33:37;39.10;48.30
36498;DHT22;22513;51.222;6.480;2022-08-16T07:36:07;39.30;47.10
36498;DHT22;22513;51.222;6.480;2022-08-16T07:38:33;39.70;46.30
36498;DHT22;22513;51.222;6.480;2022-08-16T07:41:00;39.70;45.60
36498;DHT22;22513;51.222;6.480;2022-08-16T07:43:25;39.70;45.20
36498;DHT22;22513;51.222;6.480;2022-08-16T07:45:52;39.50;45.30
36498;DHT22;22513;51.222;6.480;2022-08-16T07:48:18;39.50;45.00
36498;DHT22;22513;51.222;6.480;2022-08-16T07:50:44;39.50;44.80
36498;DHT22;22513;51.222;6.480;2022-08-16T07:53:13;39.00;45.40
36498;DHT22;22513;51.222;6.480;2022-08-16T07:55:39;38.30;46.50
36498;DHT22;22513;51.222;6.480;2022-08-16T07:58:05;38.10;46.70
36498;DHT22;22513;51.222;6.480;2022-08-16T08:00:32;37.90;46.40
36498;DHT22;22513;51.222;6.480;2022-08-16T08:02:58;37.80;46.50
36498;DHT22;22513;51.222;6.480;2022-08-16T08:05:25;37.50;47.10
36498;DHT22;22513;51.222;6.480;2022-08-16T09:08:40;30.60;56.10
36498;DHT22;22513;51.222;6.480;2022-08-16T09:11:08;30.10;57.10
36498;DHT22;22513;51.222;6.480;2022-08-16T09:13:34;29.60;59.10
36498;DHT22;22513;51.222;6.480;2022-08-16T09:16:00;29.20;60.70
36498;DHT22;22513;51.222;6.480;2022-08-16T09:18:26;28.90;61.40
36498;DHT22;22513;51.222;6.480;2022-08-16T09:20:54;28.80;61.10
36498;DHT22;22513;51.222;6.480;2022-08-16T09:23:20;28.70;61.80
36498;DHT22;22513;51.222;6.480;2022-08-16T09:25:46;28.60;63.00
36498;DHT22;22513;51.222;6.480;2022-08-16T09:28:12;28.50;63.30
36498;DHT22;22513;51.222;6.480;2022-08-16T09:30:41;28.50;62.80
36498;DHT22;22513;51.222;6.480;2022-08-16T09:33:07;28.50;62.80
36498;DHT22;22513;51.222;6.480;2022-08-16T09:35:34;28.60;62.90
36498;DHT22;22513;51.222;6.480;2022-08-16T09:38:02;28.60;62.80
36498;DHT22;22513;51.222;6.480;2022-08-16T09:40:27;28.70;62.80
36498;DHT22;22513;51.222;6.480;2022-08-16T09:42:53;28.70;63.20
36498;DHT22;22513;51.222;6.480;2022-08-16T09:45:21;28.60;63.40
36498;DHT22;22513;51.222;6.480;2022-08-16T09:47:46;28.70;63.40
36498;DHT22;22513;51.222;6.480;2022-08-16T09:50:18;28.80;62.80
36498;DHT22;22513;51.222;6.480;2022-08-16T09:52:44;28.80;62.50
36498;DHT22;22513;51.222;6.480;2022-08-16T09:55:10;28.80;62.70
36498;DHT22;22513;51.222;6.480;2022-08-16T09:57:38;28.80;62.70
36498;DHT22;22513;51.222;6.480;2022-08-16T10:00:07;28.80;62.80
36498;DHT22;22513;51.222;6.480;2022-08-16T10:02:34;28.80;62.60
36498;DHT22;22513;51.222;6.480;2022-08-16T10:05:01;28.80;62.70
36498;DHT22;22513;51.222;6.480;2022-08-16T10:07:28;28.80;62.70
36498;DHT22;22513;51.222;6.480;2022-08-16T10:09:54;28.80;62.60
36498;DHT22;22513;51.222;6.480;2022-08-16T10:12:20;28.80;62.80
36498;DHT22;22513;51.222;6.480;2022-08-16T10:15:04;28.80;63.00
36498;DHT22;22513;51.222;6.480;2022-08-16T10:17:35;28.80;63.10
36498;DHT22;22513;51.222;6.480;2022-08-16T10:20:10;28.90;62.70
36498;DHT22;22513;51.222;6.480;2022-08-16T10:22:36;28.90;62.50
36498;DHT22;22513;51.222;6.480;2022-08-16T10:25:04;28.90;62.40
36498;DHT22;22513;51.222;6.480;2022-08-16T10:27:30;28.90;62.00
36498;DHT22;22513;51.222;6.480;2022-08-16T10:29:55;29.00;61.70
36498;DHT22;22513;51.222;6.480;2022-08-16T10:32:21;29.00;61.80
36498;DHT22;22513;51.222;6.480;2022-08-16T10:34:47;29.00;61.10
36498;DHT22;22513;51.222;6.480;2022-08-16T10:37:12;29.10;60.10
36498;DHT22;22513;51.222;6.480;2022-08-16T10:39:38;29.10;59.80
36498;DHT22;22513;51.222;6.480;2022-08-16T10:42:06;29.00;59.70
36498;DHT22;22513;51.222;6.480;2022-08-16T10:44:33;29.00;59.80
36498;DHT22;22513;51.222;6.480;2022-08-16T10:46:58;29.00;59.70
36498;DHT22;22513;51.222;6.480;2022-08-16T10:49:24;29.00;59.80
36498;DHT22;22513;51.222;6.480;2022-08-16T10:51:50;29.00;60.80
36498;DHT22;22513;51.222;6.480;2022-08-16T10:54:16;29.00;60.60
36498;DHT22;22513;51.222;6.480;2022-08-16T10:56:42;28.90;60.50
36498;DHT22;22513;51.222;6.480;2022-08-16T10:59:08;29.00;60.30
36498;DHT22;22513;51.222;6.480;2022-08-16T11:01:35;29.10;59.20
36498;DHT22;22513;51.222;6.480;2022-08-16T11:04:01;29.30;58.90
36498;DHT22;22513;51.222;6.480;2022-08-16T11:06:27;29.50;58.40
36498;DHT22;22513;51.222;6.480;2022-08-16T11:08:52;29.60;57.80
36498;DHT22;22513;51.222;6.480;2022-08-16T11:11:18;29.80;56.90
36498;DHT22;22513;51.222;6.480;2022-08-16T11:13:45;30.00;56.40
36498;DHT22;22513;51.222;6.480;2022-08-16T11:16:13;30.20;56.20
36498;DHT22;22513;51.222;6.480;2022-08-16T11:18:39;30.40;55.90
36498;DHT22;22513;51.222;6.480;2022-08-16T11:21:05;30.60;55.70
36498;DHT22;22513;51.222;6.480;2022-08-16T11:23:31;30.60;55.20
36498;DHT22;22513;51.222;6.480;2022-08-16T11:25:57;30.60;55.20
36498;DHT22;22513;51.222;6.480;2022-08-16T11:28:24;30.70;54.90
36498;DHT22;22513;51.222;6.480;2022-08-16T11:30:49;30.80;54.20
36498;DHT22;22513;51.222;6.480;2022-08-16T11:33:15;30.90;54.20
36498;DHT22;22513;51.222;6.480;2022-08-16T11:35:42;31.10;54.20
36498;DHT22;22513;51.222;6.480;2022-08-16T11:38:14;31.20;53.80
36498;DHT22;22513;51.222;6.480;2022-08-16T11:43:20;31.30;53.50
36498;DHT22;22513;51.222;6.480;2022-08-16T11:45:47;31.30;53.90
36498;DHT22;22513;51.222;6.480;2022-08-16T11:48:13;31.30;53.80
36498;DHT22;22513;51.222;6.480;2022-08-16T11:50:41;31.30;53.80
36498;DHT22;22513;51.222;6.480;2022-08-16T11:53:08;31.40;54.40
36498;DHT22;22513;51.222;6.480;2022-08-16T11:55:35;31.50;53.30
36498;DHT22;22513;51.222;6.480;2022-08-16T11:58:03;31.60;53.00
36498;DHT22;22513;51.222;6.480;2022-08-16T12:00:29;31.40;52.60
36498;DHT22;22513;51.222;6.480;2022-08-16T12:02:55;31.50;52.30
36498;DHT22;22513;51.222;6.480;2022-08-16T12:05:22;31.60;51.50
36498;DHT22;22513;51.222;6.480;2022-08-16T12:07:48;31.80;51.20
36498;DHT22;22513;51.222;6.480;2022-08-16T12:10:17;31.90;50.90
36498;DHT22;22513;51.222;6.480;2022-08-16T12:12:43;32.00;50.70
36498;DHT22;22513;51.222;6.480;2022-08-16T12:15:10;32.10;50.70
36498;DHT22;22513;51.222;6.480;2022-08-16T12:17:37;32.20;50.50
36498;DHT22;22513;51.222;6.480;2022-08-16T12:20:14;32.10;50.50
36498;DHT22;22513;51.222;6.480;2022-08-16T12:22:40;32.00;50.30
36498;DHT22;22513;51.222;6.480;2022-08-16T12:25:10;31.90;50.40
36498;DHT22;22513;51.222;6.480;2022-08-16T12:27:36;31.90;50.40
36498;DHT22;22513;51.222;6.480;2022-08-16T12:30:04;31.90;50.50
36498;DHT22;22513;51.222;6.480;2022-08-16T12:32:30;31.90;50.30
36498;DHT22;22513;51.222;6.480;2022-08-16T12:34:56;31.80;50.40
36498;DHT22;22513;51.222;6.480;2022-08-16T12:37:23;31.80;50.60
36498;DHT22;22513;51.222;6.480;2022-08-16T12:39:53;31.90;50.60
36498;DHT22;22513;51.222;6.480;2022-08-16T12:42:20;31.80;50.30
36498;DHT22;22513;51.222;6.480;2022-08-16T12:44:47;32.00;50.20
36498;DHT22;22513;51.222;6.480;2022-08-16T12:47:14;32.20;50.20
36498;DHT22;22513;51.222;6.480;2022-08-16T12:49:59;32.30;50.00
36498;DHT22;22513;51.222;6.480;2022-08-16T12:52:24;32.70;49.70
36498;DHT22;22513;51.222;6.480;2022-08-16T12:54:50;32.90;49.00
36498;DHT22;22513;51.222;6.480;2022-08-16T12:57:16;33.20;48.40
36498;DHT22;22513;51.222;6.480;2022-08-16T12:59:42;33.40;47.60
36498;DHT22;22513;51.222;6.480;2022-08-16T13:02:10;33.40;47.40
36498;DHT22;22513;51.222;6.480;2022-08-16T13:04:36;33.40;47.40
36498;DHT22;22513;51.222;6.480;2022-08-16T13:07:03;33.30;47.50
36498;DHT22;22513;51.222;6.480;2022-08-16T13:09:30;33.10;47.60
36498;DHT22;22513;51.222;6.480;2022-08-16T13:12:09;33.00;47.70
36498;DHT22;22513;51.222;6.480;2022-08-16T13:14:45;32.90;47.60
36498;DHT22;22513;51.222;6.480;2022-08-16T13:17:20;32.80;47.60
36498;DHT22;22513;51.222;6.480;2022-08-16T13:19:48;32.80;47.50
36498;DHT22;22513;51.222;6.480;2022-08-16T13:22:14;32.70;47.50
36498;DHT22;22513;51.222;6.480;2022-08-16T13:24:40;32.50;47.30
36498;DHT22;22513;51.222;6.480;2022-08-16T13:27:06;32.30;47.60
36498;DHT22;22513;51.222;6.480;2022-08-16T13:29:31;32.00;48.80
36498;DHT22;22513;51.222;6.480;2022-08-16T13:31:57;31.50;48.40
36498;DHT22;22513;51.222;6.480;2022-08-16T13:34:23;31.40;49.10
36498;DHT22;22513;51.222;6.480;2022-08-16T13:36:49;31.30;49.60
36498;DHT22;22513;51.222;6.480;2022-08-16T13:39:15;31.40;49.70
36498;DHT22;22513;51.222;6.480;2022-08-16T13:41:41;31.40;49.60
36498;DHT22;22513;51.222;6.480;2022-08-16T13:44:07;31.40;49.60
36498;DHT22;22513;51.222;6.480;2022-08-16T13:46:33;31.30;49.80
36498;DHT22;22513;51.222;6.480;2022-08-16T13:48:59;31.20;50.00
36498;DHT22;22513;51.222;6.480;2022-08-16T13:51:25;31.10;50.10
36498;DHT22;22513;51.222;6.480;2022-08-16T13:53:54;30.90;50.10
36498;DHT22;22513;51.222;6.480;2022-08-16T13:56:21;30.80;50.20
36498;DHT22;22513;51.222;6.480;2022-08-16T13:58:49;30.80;50.60
36498;DHT22;22513;51.222;6.480;2022-08-16T14:01:15;30.70;50.80
36498;DHT22;22513;51.222;6.480;2022-08-16T14:03:41;30.80;51.00
36498;DHT22;22513;51.222;6.480;2022-08-16T14:06:08;30.80;51.20
36498;DHT22;22513;51.222;6.480;2022-08-16T14:08:35;30.80;51.20
36498;DHT22;22513;51.222;6.480;2022-08-16T14:11:01;31.00;51.00
36498;DHT22;22513;51.222;6.480;2022-08-16T14:13:26;31.30;50.70
36498;DHT22;22513;51.222;6.480;2022-08-16T14:15:52;31.50;50.10
36498;DHT22;22513;51.222;6.480;2022-08-16T14:18:17;31.80;49.70
36498;DHT22;22513;51.222;6.480;2022-08-16T14:20:43;32.00;48.70
36498;DHT22;22513;51.222;6.480;2022-08-16T14:23:09;32.00;48.50
36498;DHT22;22513;51.222;6.480;2022-08-16T14:25:35;31.90;48.50
36498;DHT22;22513;51.222;6.480;2022-08-16T14:28:01;31.70;48.70
36498;DHT22;22513;51.222;6.480;2022-08-16T14:30:27;31.50;49.00
36498;DHT22;22513;51.222;6.480;2022-08-16T14:32:52;31.50;49.20
36498;DHT22;22513;51.222;6.480;2022-08-16T14:35:27;31.30;49.40
36498;DHT22;22513;51.222;6.480;2022-08-16T14:37:53;31.10;49.30
36498;DHT22;22513;51.222;6.480;2022-08-16T14:40:19;30.90;50.40
36498;DHT22;22513;51.222;6.480;2022-08-16T14:42:46;31.00;49.90
36498;DHT22;22513;51.222;6.480;2022-08-16T14:45:16;31.10;49.90
36498;DHT22;22513;51.222;6.480;2022-08-16T14:47:42;31.10;49.70
36498;DHT22;22513;51.222;6.480;2022-08-16T14:50:11;31.20;49.40
36498;DHT22;22513;51.222;6.480;2022-08-16T14:52:42;31.20;49.10
36498;DHT22;22513;51.222;6.480;2022-08-16T14:55:10;31.20;49.00
36498;DHT22;22513;51.222;6.480;2022-08-16T14:57:35;31.40;48.60
36498;DHT22;22513;51.222;6.480;2022-08-16T15:00:02;31.50;48.30
36498;DHT22;22513;51.222;6.480;2022-08-16T15:02:29;31.50;48.30
36498;DHT22;22513;51.222;6.480;2022-08-16T15:04:57;31.50;48.30
36498;DHT22;22513;51.222;6.480;2022-08-16T15:07:23;31.50;48.30
36498;DHT22;22513;51.222;6.480;2022-08-16T15:09:49;31.50;48.40
36498;DHT22;22513;51.222;6.480;2022-08-16T15:12:21;31.40;48.40
36498;DHT22;22513;51.222;6.480;2022-08-16T15:14:48;31.30;48.50
36498;DHT22;22513;51.222;6.480;2022-08-16T15:17:17;31.10;48.70
36498;DHT22;22513;51.222;6.480;2022-08-16T15:19:43;31.10;48.70
36498;DHT22;22513;51.222;6.480;2022-08-16T15:22:31;31.10;48.70
36498;DHT22;22513;51.222;6.480;2022-08-16T15:24:58;31.10;48.80
36498;DHT22;22513;51.222;6.480;2022-08-16T15:27:30;31.10;48.70
36498;DHT22;22513;51.222;6.480;2022-08-16T15:29:57;31.00;48.50
36498;DHT22;22513;51.222;6.480;2022-08-16T15:32:23;30.90;48.40
36498;DHT22;22513;51.222;6.480;2022-08-16T15:34:50;30.90;48.30
36498;DHT22;22513;51.222;6.480;2022-08-16T15:37:17;30.80;48.30
36498;DHT22;22513;51.222;6.480;2022-08-16T15:39:43;30.80;48.50
36498;DHT22;22513;51.222;6.480;2022-08-16T15:42:11;30.90;48.20
36498;DHT22;22513;51.222;6.480;2022-08-16T15:44:38;30.90;48.40
36498;DHT22;22513;51.222;6.480;2022-08-16T15:47:07;31.10;48.30
36498;DHT22;22513;51.222;6.480;2022-08-16T15:49:35;31.20;48.10
36498;DHT22;22513;51.222;6.480;2022-08-16T15:52:09;31.30;47.90
36498;DHT22;22513;51.222;6.480;2022-08-16T15:54:36;31.20;48.00
36498;DHT22;22513;51.222;6.480;2022-08-16T15:57:02;31.30;48.00
36498;DHT22;22513;51.222;6.480;2022-08-16T15:59:28;31.30;48.10
36498;DHT22;22513;51.222;6.480;2022-08-16T16:01:55;31.40;48.10
36498;DHT22;22513;51.222;6.480;2022-08-16T16:04:21;31.40;48.00
36498;DHT22;22513;51.222;6.480;2022-08-16T16:06:47;31.40;48.00
36498;DHT22;22513;51.222;6.480;2022-08-16T16:09:17;31.50;47.60
36498;DHT22;22513;51.222;6.480;2022-08-16T16:11:44;31.50;47.50
36498;DHT22;22513;51.222;6.480;2022-08-16T16:14:11;31.70;47.40
36498;DHT22;22513;51.222;6.480;2022-08-16T16:16:38;31.70;47.00
36498;DHT22;22513;51.222;6.480;2022-08-16T16:19:04;31.60;46.90
36498;DHT22;22513;51.222;6.480;2022-08-16T16:21:29;31.50;47.00
36498;DHT22;22513;51.222;6.480;2022-08-16T16:23:55;31.40;47.00
36498;DHT22;22513;51.222;6.480;2022-08-16T16:26:21;31.40;47.20
36498;DHT22;22513;51.222;6.480;2022-08-16T16:28:46;31.30;47.30
36498;DHT22;22513;51.222;6.480;2022-08-16T16:31:14;31.10;47.40
36498;DHT22;22513;51.222;6.480;2022-08-16T16:33:44;31.10;47.60